sensor_id;sensor_type;location;lat;lon;timestamp;P1;durP1;ratioP1;P2;durP2;ratioP2
48268;SDS011;34088;52.232;5.196;2024-02-04T00:04:11;11.23;;;4.90;;
48268;SDS011;34088;52.232;5.196;2024-02-04T00:06:37;14.98;;;5.50;;
48268;SDS011;34088;52.232;5.196;2024-02-04T00:09:02;12.63;;;5.30;;
48268;SDS011;34088;52.232;5.196;2024-02-04T00:11:29;14.18;;;5.78;;
48268;SDS011;34088;52.232;5.196;2024-02-04T00:13:54;11.25;;;5.55;;
48268;SDS011;34088;52.232;5.196;2024-02-04T00:16:19;13.73;;;6.93;;
48268;SDS011;34088;52.232;5.196;2024-02-04T00:33:14;27.57;;;11.23;;
48268;SDS011;34088;52.232;5.196;2024-02-04T00:35:39;28.15;;;12.30;;
48268;SDS011;34088;52.232;5.196;2024-02-04T00:40:30;26.05;;;14.07;;
48268;SDS011;34088;52.232;5.196;2024-02-04T00:42:55;37.45;;;15.32;;
48268;SDS011;34088;52.232;5.196;2024-02-04T00:45:20;47.23;;;18.13;;
48268;SDS011;34088;52.232;5.196;2024-02-04T00:47:46;46.10;;;19.03;;
48268;SDS011;34088;52.232;5.196;2024-02-04T00:52:36;41.47;;;17.30;;
48268;SDS011;34088;52.232;5.196;2024-02-04T00:55:03;47.55;;;19.17;;
48268;SDS011;34088;52.232;5.196;2024-02-04T00:57:29;50.97;;;19.30;;
48268;SDS011;34088;52.232;5.196;2024-02-04T00:59:54;53.93;;;18.97;;
48268;SDS011;34088;52.232;5.196;2024-02-04T01:02:19;49.80;;;19.33;;
48268;SDS011;34088;52.232;5.196;2024-02-04T01:04:45;50.72;;;18.92;;
48268;SDS011;34088;52.232;5.196;2024-02-04T01:07:10;50.35;;;18.55;;
48268;SDS011;34088;52.232;5.196;2024-02-04T01:09:35;55.43;;;18.87;;
48268;SDS011;34088;52.232;5.196;2024-02-04T01:12:01;50.70;;;17.48;;
48268;SDS011;34088;52.232;5.196;2024-02-04T01:16:51;52.30;;;16.67;;
48268;SDS011;34088;52.232;5.196;2024-02-04T01:21:42;51.47;;;17.43;;
48268;SDS011;34088;52.232;5.196;2024-02-04T01:24:09;43.80;;;16.70;;
48268;SDS011;34088;52.232;5.196;2024-02-04T01:26:34;42.70;;;17.23;;
48268;SDS011;34088;52.232;5.196;2024-02-04T01:28:59;40.45;;;15.57;;
48268;SDS011;34088;52.232;5.196;2024-02-04T01:31:26;32.72;;;12.73;;
48268;SDS011;34088;52.232;5.196;2024-02-04T01:33:51;29.58;;;11.63;;
48268;SDS011;34088;52.232;5.196;2024-02-04T01:38:42;28.08;;;10.30;;
48268;SDS011;34088;52.232;5.196;2024-02-04T01:41:07;23.80;;;9.25;;
48268;SDS011;34088;52.232;5.196;2024-02-04T01:45:58;19.63;;;8.02;;
48268;SDS011;34088;52.232;5.196;2024-02-04T01:48:24;23.70;;;9.18;;
48268;SDS011;34088;52.232;5.196;2024-02-04T01:50:50;18.80;;;7.20;;
48268;SDS011;34088;52.232;5.196;2024-02-04T01:53:20;24.77;;;8.27;;
48268;SDS011;34088;52.232;5.196;2024-02-04T01:55:48;18.10;;;6.95;;
48268;SDS011;34088;52.232;5.196;2024-02-04T01:58:14;17.67;;;6.10;;
48268;SDS011;34088;52.232;5.196;2024-02-04T02:03:05;19.65;;;6.38;;
48268;SDS011;34088;52.232;5.196;2024-02-04T02:05:32;17.73;;;6.32;;
48268;SDS011;34088;52.232;5.196;2024-02-04T02:07:57;20.48;;;6.70;;
48268;SDS011;34088;52.232;5.196;2024-02-04T02:10:23;18.63;;;6.63;;
48268;SDS011;34088;52.232;5.196;2024-02-04T02:15:18;21.35;;;6.30;;
48268;SDS011;34088;52.232;5.196;2024-02-04T02:17:51;16.33;;;6.70;;
48268;SDS011;34088;52.232;5.196;2024-02-04T02:21:12;16.13;;;6.32;;
48268;SDS011;34088;52.232;5.196;2024-02-04T02:23:12;16.67;;;6.95;;
48268;SDS011;34088;52.232;5.196;2024-02-04T02:25:42;18.75;;;7.20;;
48268;SDS011;34088;52.232;5.196;2024-02-04T02:28:10;19.45;;;6.20;;
48268;SDS011;34088;52.232;5.196;2024-02-04T02:30:36;16.40;;;6.30;;
48268;SDS011;34088;52.232;5.196;2024-02-04T02:33:01;13.80;;;5.63;;
48268;SDS011;34088;52.232;5.196;2024-02-04T02:35:28;18.67;;;6.65;;
48268;SDS011;34088;52.232;5.196;2024-02-04T02:38:02;17.42;;;6.53;;
48268;SDS011;34088;52.232;5.196;2024-02-04T02:40:49;15.60;;;6.50;;
48268;SDS011;34088;52.232;5.196;2024-02-04T02:43:19;15.80;;;6.10;;
48268;SDS011;34088;52.232;5.196;2024-02-04T02:45:45;15.88;;;6.32;;
48268;SDS011;34088;52.232;5.196;2024-02-04T02:48:11;16.95;;;6.30;;
48268;SDS011;34088;52.232;5.196;2024-02-04T02:53:02;19.52;;;7.15;;
48268;SDS011;34088;52.232;5.196;2024-02-04T02:55:27;18.08;;;7.43;;
48268;SDS011;34088;52.232;5.196;2024-02-04T02:57:52;20.57;;;7.57;;
48268;SDS011;34088;52.232;5.196;2024-02-04T03:00:18;26.10;;;8.35;;
48268;SDS011;34088;52.232;5.196;2024-02-04T03:02:43;26.60;;;7.90;;
48268;SDS011;34088;52.232;5.196;2024-02-04T03:07:34;17.13;;;7.40;;
48268;SDS011;34088;52.232;5.196;2024-02-04T03:10:00;18.70;;;7.88;;
48268;SDS011;34088;52.232;5.196;2024-02-04T03:12:25;19.95;;;7.32;;
48268;SDS011;34088;52.232;5.196;2024-02-04T03:14:50;17.53;;;7.33;;
48268;SDS011;34088;52.232;5.196;2024-02-04T03:17:16;19.27;;;7.97;;
48268;SDS011;34088;52.232;5.196;2024-02-04T03:19:47;21.88;;;8.05;;
48268;SDS011;34088;52.232;5.196;2024-02-04T03:22:12;22.92;;;8.90;;
48268;SDS011;34088;52.232;5.196;2024-02-04T03:24:38;25.90;;;9.43;;
48268;SDS011;34088;52.232;5.196;2024-02-04T03:27:03;29.27;;;9.07;;
48268;SDS011;34088;52.232;5.196;2024-02-04T03:29:28;25.70;;;8.52;;
48268;SDS011;34088;52.232;5.196;2024-02-04T03:34:20;27.00;;;7.85;;
48268;SDS011;34088;52.232;5.196;2024-02-04T03:36:45;22.73;;;8.17;;
48268;SDS011;34088;52.232;5.196;2024-02-04T03:39:11;22.38;;;7.97;;
48268;SDS011;34088;52.232;5.196;2024-02-04T03:41:36;22.75;;;6.68;;
48268;SDS011;34088;52.232;5.196;2024-02-04T03:44:01;23.85;;;7.20;;
48268;SDS011;34088;52.232;5.196;2024-02-04T03:48:52;23.92;;;7.05;;
48268;SDS011;34088;52.232;5.196;2024-02-04T03:51:18;19.25;;;5.15;;
48268;SDS011;34088;52.232;5.196;2024-02-04T03:53:44;16.08;;;4.68;;
48268;SDS011;34088;52.232;5.196;2024-02-04T03:58:35;16.05;;;4.13;;
48268;SDS011;34088;52.232;5.196;2024-02-04T04:01:00;13.95;;;3.58;;
48268;SDS011;34088;52.232;5.196;2024-02-04T04:03:26;16.00;;;3.55;;
48268;SDS011;34088;52.232;5.196;2024-02-04T04:05:52;13.63;;;3.00;;
48268;SDS011;34088;52.232;5.196;2024-02-04T04:08:18;14.63;;;3.17;;
48268;SDS011;34088;52.232;5.196;2024-02-04T04:10:44;9.35;;;2.85;;
48268;SDS011;34088;52.232;5.196;2024-02-04T04:15:35;14.63;;;2.97;;
48268;SDS011;34088;52.232;5.196;2024-02-04T04:18:00;10.60;;;3.13;;
48268;SDS011;34088;52.232;5.196;2024-02-04T04:20:25;10.33;;;2.87;;
48268;SDS011;34088;52.232;5.196;2024-02-04T04:22:51;18.02;;;3.20;;
48268;SDS011;34088;52.232;5.196;2024-02-04T04:27:42;16.45;;;4.55;;
48268;SDS011;34088;52.232;5.196;2024-02-04T04:30:08;16.33;;;3.75;;
48268;SDS011;34088;52.232;5.196;2024-02-04T04:32:34;19.55;;;4.18;;
48268;SDS011;34088;52.232;5.196;2024-02-04T04:34:59;16.55;;;4.10;;
48268;SDS011;34088;52.232;5.196;2024-02-04T04:39:50;16.43;;;5.00;;
48268;SDS011;34088;52.232;5.196;2024-02-04T04:42:15;22.35;;;4.70;;
48268;SDS011;34088;52.232;5.196;2024-02-04T04:44:40;15.70;;;4.88;;
48268;SDS011;34088;52.232;5.196;2024-02-04T04:47:06;16.73;;;5.00;;
48268;SDS011;34088;52.232;5.196;2024-02-04T04:49:31;20.63;;;5.57;;
48268;SDS011;34088;52.232;5.196;2024-02-04T04:54:22;19.27;;;5.18;;
48268;SDS011;34088;52.232;5.196;2024-02-04T04:59:12;16.63;;;5.40;;
48268;SDS011;34088;52.232;5.196;2024-02-04T05:01:44;22.10;;;5.38;;
48268;SDS011;34088;52.232;5.196;2024-02-04T05:04:13;16.85;;;4.85;;
48268;SDS011;34088;52.232;5.196;2024-02-04T05:09:04;18.95;;;5.00;;
48268;SDS011;34088;52.232;5.196;2024-02-04T05:11:30;16.60;;;5.07;;
48268;SDS011;34088;52.232;5.196;2024-02-04T05:13:55;16.05;;;5.30;;
48268;SDS011;34088;52.232;5.196;2024-02-04T05:16:21;17.58;;;4.70;;
48268;SDS011;34088;52.232;5.196;2024-02-04T05:21:11;13.70;;;4.45;;
48268;SDS011;34088;52.232;5.196;2024-02-04T05:23:37;16.25;;;4.88;;
48268;SDS011;34088;52.232;5.196;2024-02-04T05:28:30;18.67;;;5.43;;
48268;SDS011;34088;52.232;5.196;2024-02-04T05:30:57;13.48;;;4.90;;
48268;SDS011;34088;52.232;5.196;2024-02-04T05:33:22;20.80;;;5.40;;
48268;SDS011;34088;52.232;5.196;2024-02-04T05:35:47;19.70;;;5.85;;
48268;SDS011;34088;52.232;5.196;2024-02-04T05:38:13;19.33;;;6.72;;
48268;SDS011;34088;52.232;5.196;2024-02-04T05:40:38;22.83;;;7.13;;
48268;SDS011;34088;52.232;5.196;2024-02-04T05:43:03;20.42;;;6.25;;
48268;SDS011;34088;52.232;5.196;2024-02-04T05:45:32;28.02;;;6.97;;
48268;SDS011;34088;52.232;5.196;2024-02-04T05:47:57;16.92;;;6.10;;
48268;SDS011;34088;52.232;5.196;2024-02-04T05:50:22;21.25;;;7.18;;
48268;SDS011;34088;52.232;5.196;2024-02-04T05:52:48;19.48;;;6.70;;
48268;SDS011;34088;52.232;5.196;2024-02-04T05:57:39;23.05;;;6.88;;
48268;SDS011;34088;52.232;5.196;2024-02-04T06:00:04;16.90;;;6.63;;
48268;SDS011;34088;52.232;5.196;2024-02-04T06:02:31;21.20;;;7.30;;
48268;SDS011;34088;52.232;5.196;2024-02-04T06:04:56;18.83;;;6.68;;
48268;SDS011;34088;52.232;5.196;2024-02-04T06:09:47;17.50;;;6.63;;
48268;SDS011;34088;52.232;5.196;2024-02-04T06:12:12;16.20;;;5.85;;
48268;SDS011;34088;52.232;5.196;2024-02-04T06:14:38;16.37;;;5.37;;
48268;SDS011;34088;52.232;5.196;2024-02-04T06:17:05;14.43;;;5.50;;
48268;SDS011;34088;52.232;5.196;2024-02-04T06:19:33;17.40;;;6.55;;
48268;SDS011;34088;52.232;5.196;2024-02-04T06:21:58;17.40;;;6.45;;
48268;SDS011;34088;52.232;5.196;2024-02-04T06:24:23;14.30;;;6.22;;
48268;SDS011;34088;52.232;5.196;2024-02-04T06:29:14;19.43;;;6.70;;
48268;SDS011;34088;52.232;5.196;2024-02-04T06:31:39;22.13;;;7.83;;
48268;SDS011;34088;52.232;5.196;2024-02-04T06:36:29;19.77;;;7.57;;
48268;SDS011;34088;52.232;5.196;2024-02-04T06:38:55;26.07;;;8.90;;
48268;SDS011;34088;52.232;5.196;2024-02-04T06:43:45;24.90;;;8.90;;
48268;SDS011;34088;52.232;5.196;2024-02-04T06:46:11;21.08;;;9.48;;
48268;SDS011;34088;52.232;5.196;2024-02-04T06:48:36;23.92;;;10.35;;
48268;SDS011;34088;52.232;5.196;2024-02-04T06:53:27;26.75;;;10.23;;
48268;SDS011;34088;52.232;5.196;2024-02-04T06:55:52;19.57;;;10.17;;
48268;SDS011;34088;52.232;5.196;2024-02-04T06:58:17;22.70;;;11.50;;
48268;SDS011;34088;52.232;5.196;2024-02-04T07:03:08;22.88;;;12.07;;
48268;SDS011;34088;52.232;5.196;2024-02-04T07:05:33;26.20;;;12.82;;
48268;SDS011;34088;52.232;5.196;2024-02-04T07:07:59;29.35;;;13.13;;
48268;SDS011;34088;52.232;5.196;2024-02-04T07:10:24;30.13;;;14.52;;
48268;SDS011;34088;52.232;5.196;2024-02-04T07:12:49;27.60;;;14.87;;
48268;SDS011;34088;52.232;5.196;2024-02-04T07:15:14;28.43;;;15.97;;
48268;SDS011;34088;52.232;5.196;2024-02-04T07:17:40;28.80;;;16.08;;
48268;SDS011;34088;52.232;5.196;2024-02-04T07:22:31;33.28;;;16.05;;
48268;SDS011;34088;52.232;5.196;2024-02-04T07:24:56;34.17;;;17.08;;
48268;SDS011;34088;52.232;5.196;2024-02-04T07:27:22;33.60;;;16.98;;
48268;SDS011;34088;52.232;5.196;2024-02-04T07:29:47;33.95;;;16.25;;
48268;SDS011;34088;52.232;5.196;2024-02-04T07:32:12;31.65;;;14.02;;
48268;SDS011;34088;52.232;5.196;2024-02-04T07:34:39;22.92;;;13.00;;
48268;SDS011;34088;52.232;5.196;2024-02-04T07:37:05;20.23;;;10.98;;
48268;SDS011;34088;52.232;5.196;2024-02-04T07:39:30;23.27;;;11.53;;
48268;SDS011;34088;52.232;5.196;2024-02-04T07:41:56;20.33;;;10.77;;
48268;SDS011;34088;52.232;5.196;2024-02-04T07:44:25;21.48;;;9.50;;
48268;SDS011;34088;52.232;5.196;2024-02-04T07:46:51;15.13;;;7.13;;
48268;SDS011;34088;52.232;5.196;2024-02-04T07:49:16;11.35;;;6.18;;
48268;SDS011;34088;52.232;5.196;2024-02-04T07:54:07;10.90;;;5.30;;
48268;SDS011;34088;52.232;5.196;2024-02-04T07:56:32;10.30;;;4.60;;
48268;SDS011;34088;52.232;5.196;2024-02-04T07:58:57;11.88;;;4.88;;
48268;SDS011;34088;52.232;5.196;2024-02-04T08:01:23;10.43;;;4.55;;
48268;SDS011;34088;52.232;5.196;2024-02-04T08:03:49;9.55;;;4.10;;
48268;SDS011;34088;52.232;5.196;2024-02-04T08:06:14;8.98;;;4.18;;
48268;SDS011;34088;52.232;5.196;2024-02-04T08:11:06;12.27;;;3.90;;
48268;SDS011;34088;52.232;5.196;2024-02-04T08:13:31;10.77;;;3.40;;
48268;SDS011;34088;52.232;5.196;2024-02-04T08:15:56;10.57;;;3.57;;
48268;SDS011;34088;52.232;5.196;2024-02-04T08:18:21;5.47;;;3.03;;
48268;SDS011;34088;52.232;5.196;2024-02-04T08:20:47;12.43;;;3.43;;
48268;SDS011;34088;52.232;5.196;2024-02-04T08:25:37;11.63;;;3.78;;
48268;SDS011;34088;52.232;5.196;2024-02-04T08:28:02;11.17;;;3.70;;
48268;SDS011;34088;52.232;5.196;2024-02-04T08:30:28;8.68;;;3.38;;
48268;SDS011;34088;52.232;5.196;2024-02-04T08:32:53;7.97;;;3.43;;
48268;SDS011;34088;52.232;5.196;2024-02-04T08:35:19;8.43;;;3.57;;
48268;SDS011;34088;52.232;5.196;2024-02-04T08:37:44;9.77;;;3.40;;
48268;SDS011;34088;52.232;5.196;2024-02-04T08:42:35;14.02;;;5.63;;
48268;SDS011;34088;52.232;5.196;2024-02-04T08:47:26;19.00;;;8.40;;
48268;SDS011;34088;52.232;5.196;2024-02-04T08:49:51;21.60;;;9.23;;
48268;SDS011;34088;52.232;5.196;2024-02-04T08:54:42;18.15;;;8.77;;
48268;SDS011;34088;52.232;5.196;2024-02-04T08:57:07;17.75;;;9.57;;
48268;SDS011;34088;52.232;5.196;2024-02-04T08:59:32;28.83;;;11.00;;
48268;SDS011;34088;52.232;5.196;2024-02-04T09:01:57;30.53;;;11.83;;
48268;SDS011;34088;52.232;5.196;2024-02-04T09:04:23;20.20;;;9.52;;
48268;SDS011;34088;52.232;5.196;2024-02-04T09:06:48;20.85;;;9.07;;
48268;SDS011;34088;52.232;5.196;2024-02-04T09:09:13;20.50;;;9.25;;
48268;SDS011;34088;52.232;5.196;2024-02-04T09:14:04;16.60;;;6.77;;
48268;SDS011;34088;52.232;5.196;2024-02-04T09:16:29;15.88;;;6.18;;
48268;SDS011;34088;52.232;5.196;2024-02-04T09:21:20;12.68;;;5.35;;
48268;SDS011;34088;52.232;5.196;2024-02-04T09:23:45;10.48;;;4.32;;
48268;SDS011;34088;52.232;5.196;2024-02-04T09:26:11;8.20;;;4.32;;
48268;SDS011;34088;52.232;5.196;2024-02-04T09:31:02;10.50;;;4.20;;
48268;SDS011;34088;52.232;5.196;2024-02-04T09:33:28;9.32;;;3.38;;
48268;SDS011;34088;52.232;5.196;2024-02-04T09:35:53;8.00;;;3.40;;
48268;SDS011;34088;52.232;5.196;2024-02-04T09:38:19;9.55;;;4.40;;
48268;SDS011;34088;52.232;5.196;2024-02-04T09:40:45;7.65;;;4.20;;
48268;SDS011;34088;52.232;5.196;2024-02-04T09:43:10;11.30;;;3.30;;
48268;SDS011;34088;52.232;5.196;2024-02-04T09:45:36;9.68;;;3.45;;
48268;SDS011;34088;52.232;5.196;2024-02-04T09:50:27;8.93;;;3.58;;
48268;SDS011;34088;52.232;5.196;2024-02-04T09:55:20;10.23;;;3.00;;
48268;SDS011;34088;52.232;5.196;2024-02-04T09:57:48;10.52;;;3.17;;
48268;SDS011;34088;52.232;5.196;2024-02-04T10:00:14;6.22;;;2.45;;
48268;SDS011;34088;52.232;5.196;2024-02-04T10:02:45;5.28;;;2.40;;
48268;SDS011;34088;52.232;5.196;2024-02-04T10:05:12;6.00;;;2.30;;
48268;SDS011;34088;52.232;5.196;2024-02-04T10:07:37;5.40;;;2.08;;
48268;SDS011;34088;52.232;5.196;2024-02-04T10:12:29;7.05;;;2.30;;
48268;SDS011;34088;52.232;5.196;2024-02-04T10:14:55;4.43;;;1.52;;
48268;SDS011;34088;52.232;5.196;2024-02-04T10:19:49;7.68;;;2.10;;
48268;SDS011;34088;52.232;5.196;2024-02-04T10:22:14;8.05;;;1.90;;
48268;SDS011;34088;52.232;5.196;2024-02-04T10:24:41;6.60;;;2.10;;
48268;SDS011;34088;52.232;5.196;2024-02-04T10:27:07;7.15;;;2.83;;
48268;SDS011;34088;52.232;5.196;2024-02-04T10:29:34;5.47;;;2.30;;
48268;SDS011;34088;52.232;5.196;2024-02-04T10:32:00;5.03;;;1.67;;
48268;SDS011;34088;52.232;5.196;2024-02-04T10:34:26;4.03;;;1.50;;
48268;SDS011;34088;52.232;5.196;2024-02-04T10:36:52;5.22;;;1.52;;
48268;SDS011;34088;52.232;5.196;2024-02-04T10:39:17;6.90;;;1.63;;
48268;SDS011;34088;52.232;5.196;2024-02-04T10:44:16;4.55;;;1.80;;
48268;SDS011;34088;52.232;5.196;2024-02-04T10:46:42;5.93;;;1.33;;
48268;SDS011;34088;52.232;5.196;2024-02-04T10:49:13;4.03;;;1.40;;
48268;SDS011;34088;52.232;5.196;2024-02-04T10:51:39;4.57;;;1.23;;
48268;SDS011;34088;52.232;5.196;2024-02-04T10:54:06;5.07;;;1.80;;
48268;SDS011;34088;52.232;5.196;2024-02-04T10:59:09;5.07;;;1.67;;
48268;SDS011;34088;52.232;5.196;2024-02-04T11:01:36;6.00;;;1.80;;
48268;SDS011;34088;52.232;5.196;2024-02-04T11:04:03;5.35;;;1.67;;
48268;SDS011;34088;52.232;5.196;2024-02-04T11:06:30;7.20;;;1.85;;
48268;SDS011;34088;52.232;5.196;2024-02-04T11:08:56;4.45;;;1.70;;
48268;SDS011;34088;52.232;5.196;2024-02-04T11:11:23;6.10;;;1.80;;
48268;SDS011;34088;52.232;5.196;2024-02-04T11:13:50;7.80;;;2.05;;
48268;SDS011;34088;52.232;5.196;2024-02-04T11:24:22;3.92;;;1.70;;
48268;SDS011;34088;52.232;5.196;2024-02-04T11:27:03;7.97;;;2.75;;
48268;SDS011;34088;52.232;5.196;2024-02-04T11:31:54;12.38;;;3.97;;
48268;SDS011;34088;52.232;5.196;2024-02-04T11:34:19;17.70;;;4.50;;
48268;SDS011;34088;52.232;5.196;2024-02-04T11:39:13;12.13;;;4.40;;
48268;SDS011;34088;52.232;5.196;2024-02-04T11:41:50;15.13;;;4.55;;
48268;SDS011;34088;52.232;5.196;2024-02-04T11:44:25;14.23;;;5.10;;
48268;SDS011;34088;52.232;5.196;2024-02-04T11:46:51;19.45;;;5.05;;
48268;SDS011;34088;52.232;5.196;2024-02-04T11:51:52;15.43;;;4.85;;
48268;SDS011;34088;52.232;5.196;2024-02-04T11:54:18;22.08;;;5.32;;
48268;SDS011;34088;52.232;5.196;2024-02-04T11:56:45;18.77;;;4.47;;
48268;SDS011;34088;52.232;5.196;2024-02-04T11:59:11;20.98;;;4.28;;
48268;SDS011;34088;52.232;5.196;2024-02-04T12:01:40;19.00;;;4.63;;
48268;SDS011;34088;52.232;5.196;2024-02-04T12:04:09;16.60;;;4.50;;
48268;SDS011;34088;52.232;5.196;2024-02-04T12:06:42;20.95;;;4.45;;
48268;SDS011;34088;52.232;5.196;2024-02-04T12:09:08;17.60;;;4.72;;
48268;SDS011;34088;52.232;5.196;2024-02-04T12:11:35;13.98;;;3.60;;
48268;SDS011;34088;52.232;5.196;2024-02-04T12:14:01;21.10;;;4.25;;
48268;SDS011;34088;52.232;5.196;2024-02-04T12:16:30;16.75;;;3.88;;
48268;SDS011;34088;52.232;5.196;2024-02-04T12:18:57;18.83;;;4.07;;
48268;SDS011;34088;52.232;5.196;2024-02-04T12:21:22;19.92;;;3.72;;
48268;SDS011;34088;52.232;5.196;2024-02-04T12:26:13;13.25;;;3.28;;
48268;SDS011;34088;52.232;5.196;2024-02-04T12:31:04;15.45;;;3.20;;
48268;SDS011;34088;52.232;5.196;2024-02-04T12:33:30;15.85;;;3.80;;
48268;SDS011;34088;52.232;5.196;2024-02-04T12:38:23;16.23;;;2.88;;
48268;SDS011;34088;52.232;5.196;2024-02-04T12:40:48;13.32;;;3.10;;
48268;SDS011;34088;52.232;5.196;2024-02-04T12:45:39;11.02;;;3.00;;
48268;SDS011;34088;52.232;5.196;2024-02-04T12:48:05;14.40;;;3.30;;
48268;SDS011;34088;52.232;5.196;2024-02-04T12:50:31;13.93;;;3.35;;
48268;SDS011;34088;52.232;5.196;2024-02-04T12:53:05;11.05;;;2.70;;
48268;SDS011;34088;52.232;5.196;2024-02-04T12:55:34;10.57;;;2.67;;
48268;SDS011;34088;52.232;5.196;2024-02-04T12:58:01;16.42;;;3.13;;
48268;SDS011;34088;52.232;5.196;2024-02-04T13:00:34;10.90;;;3.20;;
48268;SDS011;34088;52.232;5.196;2024-02-04T13:03:01;12.75;;;3.25;;
48268;SDS011;34088;52.232;5.196;2024-02-04T13:05:29;14.98;;;2.83;;
48268;SDS011;34088;52.232;5.196;2024-02-04T13:07:58;15.43;;;3.35;;
48268;SDS011;34088;52.232;5.196;2024-02-04T13:10:27;11.57;;;3.00;;
48268;SDS011;34088;52.232;5.196;2024-02-04T13:13:00;11.25;;;2.92;;
48268;SDS011;34088;52.232;5.196;2024-02-04T13:15:27;17.42;;;3.47;;
48268;SDS011;34088;52.232;5.196;2024-02-04T13:17:53;8.88;;;3.03;;
48268;SDS011;34088;52.232;5.196;2024-02-04T13:20:18;8.45;;;2.58;;
48268;SDS011;34088;52.232;5.196;2024-02-04T13:25:09;14.90;;;3.10;;
48268;SDS011;34088;52.232;5.196;2024-02-04T13:30:00;8.73;;;3.00;;
48268;SDS011;34088;52.232;5.196;2024-02-04T13:32:25;9.05;;;2.95;;
48268;SDS011;34088;52.232;5.196;2024-02-04T13:37:16;6.65;;;2.70;;
48268;SDS011;34088;52.232;5.196;2024-02-04T13:39:42;9.45;;;2.70;;
48268;SDS011;34088;52.232;5.196;2024-02-04T13:42:08;7.50;;;2.78;;
48268;SDS011;34088;52.232;5.196;2024-02-04T13:44:34;13.02;;;3.35;;
48268;SDS011;34088;52.232;5.196;2024-02-04T13:49:24;11.90;;;3.30;;
48268;SDS011;34088;52.232;5.196;2024-02-04T13:51:49;8.37;;;3.30;;
48268;SDS011;34088;52.232;5.196;2024-02-04T13:54:15;9.23;;;3.33;;
48268;SDS011;34088;52.232;5.196;2024-02-04T13:56:40;10.45;;;2.90;;
48268;SDS011;34088;52.232;5.196;2024-02-04T13:59:05;10.07;;;3.38;;
48268;SDS011;34088;52.232;5.196;2024-02-04T14:03:56;12.13;;;3.50;;
48268;SDS011;34088;52.232;5.196;2024-02-04T14:08:47;14.77;;;3.83;;
48268;SDS011;34088;52.232;5.196;2024-02-04T14:11:12;11.30;;;3.38;;
48268;SDS011;34088;52.232;5.196;2024-02-04T14:16:03;9.90;;;3.20;;
48268;SDS011;34088;52.232;5.196;2024-02-04T14:18:28;15.50;;;3.33;;
48268;SDS011;34088;52.232;5.196;2024-02-04T14:20:54;10.55;;;2.90;;
48268;SDS011;34088;52.232;5.196;2024-02-04T14:25:44;11.90;;;3.00;;
48268;SDS011;34088;52.232;5.196;2024-02-04T14:28:11;13.05;;;3.55;;
48268;SDS011;34088;52.232;5.196;2024-02-04T14:30:36;11.98;;;3.20;;
48268;SDS011;34088;52.232;5.196;2024-02-04T14:33:01;12.80;;;3.20;;
48268;SDS011;34088;52.232;5.196;2024-02-04T14:35:28;10.23;;;3.17;;
48268;SDS011;34088;52.232;5.196;2024-02-04T14:40:18;8.63;;;2.70;;
48268;SDS011;34088;52.232;5.196;2024-02-04T14:42:43;9.23;;;2.83;;
48268;SDS011;34088;52.232;5.196;2024-02-04T14:47:35;11.55;;;2.95;;
48268;SDS011;34088;52.232;5.196;2024-02-04T14:52:27;12.10;;;3.05;;
48268;SDS011;34088;52.232;5.196;2024-02-04T14:57:18;10.13;;;2.40;;
48268;SDS011;34088;52.232;5.196;2024-02-04T14:59:44;12.32;;;2.78;;
48268;SDS011;34088;52.232;5.196;2024-02-04T15:04:34;14.98;;;3.15;;
48268;SDS011;34088;52.232;5.196;2024-02-04T15:09:28;18.33;;;3.60;;
48268;SDS011;34088;52.232;5.196;2024-02-04T15:11:57;13.77;;;3.53;;
48268;SDS011;34088;52.232;5.196;2024-02-04T15:14:22;13.88;;;3.33;;
48268;SDS011;34088;52.232;5.196;2024-02-04T15:19:14;10.80;;;3.00;;
48268;SDS011;34088;52.232;5.196;2024-02-04T15:24:05;13.18;;;4.18;;
48268;SDS011;34088;52.232;5.196;2024-02-04T15:28:57;12.33;;;2.70;;
48268;SDS011;34088;52.232;5.196;2024-02-04T15:31:26;11.45;;;3.03;;
48268;SDS011;34088;52.232;5.196;2024-02-04T15:33:53;10.23;;;2.70;;
48268;SDS011;34088;52.232;5.196;2024-02-04T15:38:44;14.43;;;4.07;;
48268;SDS011;34088;52.232;5.196;2024-02-04T15:43:34;14.80;;;3.90;;
48268;SDS011;34088;52.232;5.196;2024-02-04T15:48:28;15.93;;;4.18;;
48268;SDS011;34088;52.232;5.196;2024-02-04T15:50:56;16.55;;;4.30;;
48268;SDS011;34088;52.232;5.196;2024-02-04T15:55:47;16.95;;;4.40;;
48268;SDS011;34088;52.232;5.196;2024-02-04T16:00:38;19.88;;;4.50;;
48268;SDS011;34088;52.232;5.196;2024-02-04T16:03:04;22.60;;;4.97;;
48268;SDS011;34088;52.232;5.196;2024-02-04T16:05:29;25.80;;;5.18;;
48268;SDS011;34088;52.232;5.196;2024-02-04T16:10:21;25.25;;;5.63;;
48268;SDS011;34088;52.232;5.196;2024-02-04T16:12:52;26.58;;;5.65;;
48268;SDS011;34088;52.232;5.196;2024-02-04T16:15:21;21.48;;;5.22;;
48268;SDS011;34088;52.232;5.196;2024-02-04T16:17:48;23.23;;;5.35;;
48268;SDS011;34088;52.232;5.196;2024-02-04T16:20:13;23.88;;;5.78;;
48268;SDS011;34088;52.232;5.196;2024-02-04T16:22:39;20.73;;;5.50;;
48268;SDS011;34088;52.232;5.196;2024-02-04T16:27:30;24.33;;;5.78;;
48268;SDS011;34088;52.232;5.196;2024-02-04T16:32:20;25.88;;;5.70;;
48268;SDS011;34088;52.232;5.196;2024-02-04T16:37:11;27.95;;;5.70;;
48268;SDS011;34088;52.232;5.196;2024-02-04T16:42:02;22.08;;;6.00;;
48268;SDS011;34088;52.232;5.196;2024-02-04T16:46:53;31.55;;;6.38;;
48268;SDS011;34088;52.232;5.196;2024-02-04T16:49:21;25.52;;;5.47;;
48268;SDS011;34088;52.232;5.196;2024-02-04T16:51:48;27.33;;;6.38;;
48268;SDS011;34088;52.232;5.196;2024-02-04T16:54:14;25.80;;;5.55;;
48268;SDS011;34088;52.232;5.196;2024-02-04T16:56:43;30.85;;;7.13;;
48268;SDS011;34088;52.232;5.196;2024-02-04T16:59:10;28.27;;;8.10;;
48268;SDS011;34088;52.232;5.196;2024-02-04T17:01:36;27.75;;;6.60;;
48268;SDS011;34088;52.232;5.196;2024-02-04T17:04:01;26.17;;;6.63;;
48268;SDS011;34088;52.232;5.196;2024-02-04T17:08:53;28.17;;;6.53;;
48268;SDS011;34088;52.232;5.196;2024-02-04T17:11:19;30.02;;;7.55;;
48268;SDS011;34088;52.232;5.196;2024-02-04T17:13:46;30.10;;;8.30;;
48268;SDS011;34088;52.232;5.196;2024-02-04T17:19:09;30.95;;;7.32;;
48268;SDS011;34088;52.232;5.196;2024-02-04T17:21:47;32.65;;;7.93;;
48268;SDS011;34088;52.232;5.196;2024-02-04T17:24:20;33.72;;;7.65;;
48268;SDS011;34088;52.232;5.196;2024-02-04T17:26:53;35.63;;;8.85;;
48268;SDS011;34088;52.232;5.196;2024-02-04T17:29:20;29.48;;;7.45;;
48268;SDS011;34088;52.232;5.196;2024-02-04T17:31:47;28.95;;;7.95;;
48268;SDS011;34088;52.232;5.196;2024-02-04T17:34:12;31.65;;;8.88;;
48268;SDS011;34088;52.232;5.196;2024-02-04T17:39:04;35.40;;;8.10;;
48268;SDS011;34088;52.232;5.196;2024-02-04T17:41:30;33.55;;;7.90;;
48268;SDS011;34088;52.232;5.196;2024-02-04T17:43:59;26.55;;;7.10;;
48268;SDS011;34088;52.232;5.196;2024-02-04T17:46:24;31.08;;;7.32;;
48268;SDS011;34088;52.232;5.196;2024-02-04T17:51:15;35.72;;;7.88;;
48268;SDS011;34088;52.232;5.196;2024-02-04T17:56:08;36.67;;;8.43;;
48268;SDS011;34088;52.232;5.196;2024-02-04T17:58:39;39.67;;;8.82;;
48268;SDS011;34088;52.232;5.196;2024-02-04T18:01:04;32.45;;;7.95;;
48268;SDS011;34088;52.232;5.196;2024-02-04T18:05:55;23.15;;;5.70;;
48268;SDS011;34088;52.232;5.196;2024-02-04T18:10:46;34.00;;;7.13;;
48268;SDS011;34088;52.232;5.196;2024-02-04T18:15:38;29.95;;;6.97;;
48268;SDS011;34088;52.232;5.196;2024-02-04T18:18:03;28.77;;;7.38;;
48268;SDS011;34088;52.232;5.196;2024-02-04T18:20:29;31.63;;;7.53;;
48268;SDS011;34088;52.232;5.196;2024-02-04T18:25:20;35.37;;;7.77;;
48268;SDS011;34088;52.232;5.196;2024-02-04T18:27:45;35.17;;;10.15;;
48268;SDS011;34088;52.232;5.196;2024-02-04T18:32:36;36.30;;;6.95;;